sensor_id;sensor_type;location;lat;lon;timestamp;pressure;altitude;pressure_sealevel;temperature;humidity
60307;BME280;46155;52.364;6.580;2023-08-30T03:01:51;100493.84;;;13.20;100.00
60307;BME280;46155;52.364;6.580;2023-08-30T03:04:16;100491.81;;;13.14;100.00
60307;BME280;46155;52.364;6.580;2023-08-30T03:06:42;100489.88;;;13.10;100.00
60307;BME280;46155;52.364;6.580;2023-08-30T03:09:08;100486.13;;;13.05;100.00
60307;BME280;46155;52.364;6.580;2023-08-30T03:11:33;100485.78;;;12.97;100.00
60307;BME280;46155;52.364;6.580;2023-08-30T03:13:58;100482.16;;;12.95;100.00
60307;BME280;46155;52.364;6.580;2023-08-30T03:16:24;100483.91;;;12.95;100.00
60307;BME280;46155;52.364;6.580;2023-08-30T03:18:49;100481.13;;;12.91;100.00
60307;BME280;46155;52.364;6.580;2023-08-30T03:21:15;100484.59;;;12.90;100.00
60307;BME280;46155;52.364;6.580;2023-08-30T03:23:41;100474.94;;;12.91;100.00
60307;BME280;46155;52.364;6.580;2023-08-30T03:26:14;100474.81;;;12.88;100.00
60307;BME280;46155;52.364;6.580;2023-08-30T03:28:41;100481.91;;;12.89;100.00
60307;BME280;46155;52.364;6.580;2023-08-30T03:31:19;100468.41;;;12.83;100.00
60307;BME280;46155;52.364;6.580;2023-08-30T03:33:45;100460.84;;;12.71;100.00
60307;BME280;46155;52.364;6.580;2023-08-30T03:36:11;100452.19;;;12.73;100.00
60307;BME280;46155;52.364;6.580;2023-08-30T03:38:37;100460.09;;;12.73;100.00
60307;BME280;46155;52.364;6.580;2023-08-30T03:41:03;100453.78;;;12.70;100.00
60307;BME280;46155;52.364;6.580;2023-08-30T03:43:30;100451.16;;;12.70;100.00
60307;BME280;46155;52.364;6.580;2023-08-30T03:45:55;100440.53;;;12.68;100.00
60307;BME280;46155;52.364;6.580;2023-08-30T03:48:21;100444.44;;;12.77;100.00
60307;BME280;46155;52.364;6.580;2023-08-30T03:50:46;100441.88;;;12.78;100.00
60307;BME280;46155;52.364;6.580;2023-08-30T03:53:12;100418.50;;;12.66;100.00
60307;BME280;46155;52.364;6.580;2023-08-30T03:55:37;100421.72;;;12.79;100.00
60307;BME280;46155;52.364;6.580;2023-08-30T03:58:02;100437.94;;;12.88;100.00
60307;BME280;46155;52.364;6.580;2023-08-30T04:00:28;100437.94;;;12.88;100.00
60307;BME280;46155;52.364;6.580;2023-08-30T04:02:53;100424.69;;;12.86;100.00
60307;BME280;46155;52.364;6.580;2023-08-30T04:05:19;100438.19;;;12.94;100.00
60307;BME280;46155;52.364;6.580;2023-08-30T04:07:44;100427.81;;;12.97;100.00
60307;BME280;46155;52.364;6.580;2023-08-30T04:10:09;100431.34;;;12.98;100.00
60307;BME280;46155;52.364;6.580;2023-08-30T04:12:35;100423.56;;;13.01;100.00
60307;BME280;46155;52.364;6.580;2023-08-30T04:15:01;100423.63;;;13.02;100.00
60307;BME280;46155;52.364;6.580;2023-08-30T04:17:27;100430.53;;;12.99;100.00
60307;BME280;46155;52.364;6.580;2023-08-30T04:19:52;100416.44;;;12.98;100.00
60307;BME280;46155;52.364;6.580;2023-08-30T04:22:18;100421.84;;;13.01;100.00
60307;BME280;46155;52.364;6.580;2023-08-30T04:24:44;100410.47;;;13.02;100.00
60307;BME280;46155;52.364;6.580;2023-08-30T04:27:09;100410.47;;;13.02;100.00
60307;BME280;46155;52.364;6.580;2023-08-30T04:29:34;100406.19;;;13.04;100.00
60307;BME280;46155;52.364;6.580;2023-08-30T04:32:00;100392.78;;;13.00;100.00
60307;BME280;46155;52.364;6.580;2023-08-30T04:34:25;100398.28;;;13.04;100.00
60307;BME280;46155;52.364;6.580;2023-08-30T04:36:51;100395.63;;;13.04;100.00
60307;BME280;46155;52.364;6.580;2023-08-30T04:39:16;100396.47;;;13.03;100.00
60307;BME280;46155;52.364;6.580;2023-08-30T04:41:42;100387.31;;;12.95;100.00
60307;BME280;46155;52.364;6.580;2023-08-30T04:44:07;100386.84;;;12.84;100.00
60307;BME280;46155;52.364;6.580;2023-08-30T04:46:32;100389.19;;;12.78;100.00
60307;BME280;46155;52.364;6.580;2023-08-30T04:48:58;100389.00;;;12.73;100.00
60307;BME280;46155;52.364;6.580;2023-08-30T04:51:23;100388.00;;;12.71;100.00
60307;BME280;46155;52.364;6.580;2023-08-30T04:53:48;100387.88;;;12.68;100.00
60307;BME280;46155;52.364;6.580;2023-08-30T04:56:14;100394.94;;;12.69;100.00
60307;BME280;46155;52.364;6.580;2023-08-30T04:58:39;100385.03;;;12.64;100.00
60307;BME280;46155;52.364;6.580;2023-08-30T05:01:05;100391.06;;;12.61;100.00
60307;BME280;46155;52.364;6.580;2023-08-30T05:03:32;100391.06;;;12.61;100.00
60307;BME280;46155;52.364;6.580;2023-08-30T05:05:57;100387.47;;;12.59;100.00
60307;BME280;46155;52.364;6.580;2023-08-30T05:08:22;100372.50;;;12.58;100.00
60307;BME280;46155;52.364;6.580;2023-08-30T05:10:48;100383.03;;;12.58;100.00
60307;BME280;46155;52.364;6.580;2023-08-30T05:13:15;100376.63;;;12.53;100.00
60307;BME280;46155;52.364;6.580;2023-08-30T05:15:41;100374.06;;;12.54;100.00
60307;BME280;46155;52.364;6.580;2023-08-30T05:18:06;100373.19;;;12.54;100.00
60307;BME280;46155;52.364;6.580;2023-08-30T05:20:32;100378.44;;;12.54;100.00
60307;BME280;46155;52.364;6.580;2023-08-30T05:22:57;100377.63;;;12.55;100.00
60307;BME280;46155;52.364;6.580;2023-08-30T05:25:22;100384.91;;;12.61;100.00
60307;BME280;46155;52.364;6.580;2023-08-30T05:27:48;100380.47;;;12.60;100.00
60307;BME280;46155;52.364;6.580;2023-08-30T05:30:13;100379.50;;;12.57;100.00
60307;BME280;46155;52.364;6.580;2023-08-30T05:32:39;100372.63;;;12.61;100.00
60307;BME280;46155;52.364;6.580;2023-08-30T05:35:04;100377.19;;;12.65;100.00
60307;BME280;46155;52.364;6.580;2023-08-30T05:37:29;100380.66;;;12.64;100.00
60307;BME280;46155;52.364;6.580;2023-08-30T05:39:57;100381.28;;;12.58;100.00
60307;BME280;46155;52.364;6.580;2023-08-30T05:42:22;100385.91;;;12.64;100.00
60307;BME280;46155;52.364;6.580;2023-08-30T05:44:48;100372.00;;;12.67;100.00
60307;BME280;46155;52.364;6.580;2023-08-30T05:47:13;100370.69;;;12.77;100.00
60307;BME280;46155;52.364;6.580;2023-08-30T05:49:40;100360.28;;;12.80;100.00
60307;BME280;46155;52.364;6.580;2023-08-30T05:52:06;100364.28;;;12.91;100.00
60307;BME280;46155;52.364;6.580;2023-08-30T05:54:31;100359.31;;;12.97;100.00
60307;BME280;46155;52.364;6.580;2023-08-30T05:56:59;100357.75;;;13.02;100.00
60307;BME280;46155;52.364;6.580;2023-08-30T05:59:24;100367.94;;;13.14;100.00
60307;BME280;46155;52.364;6.580;2023-08-30T06:01:49;100370.03;;;13.21;100.00
60307;BME280;46155;52.364;6.580;2023-08-30T06:04:15;100359.59;;;13.24;100.00
60307;BME280;46155;52.364;6.580;2023-08-30T06:06:40;100360.78;;;13.31;100.00
60307;BME280;46155;52.364;6.580;2023-08-30T06:09:05;100361.88;;;13.36;100.00
60307;BME280;46155;52.364;6.580;2023-08-30T06:11:32;100354.44;;;13.47;100.00
60307;BME280;46155;52.364;6.580;2023-08-30T06:13:57;100348.25;;;13.47;100.00
60307;BME280;46155;52.364;6.580;2023-08-30T06:16:24;100350.69;;;13.63;100.00
60307;BME280;46155;52.364;6.580;2023-08-30T06:18:50;100340.47;;;13.71;100.00
60307;BME280;46155;52.364;6.580;2023-08-30T06:21:15;100345.22;;;13.80;100.00
60307;BME280;46155;52.364;6.580;2023-08-30T06:23:40;100344.84;;;13.93;100.00
60307;BME280;46155;52.364;6.580;2023-08-30T06:26:05;100339.50;;;13.91;100.00
60307;BME280;46155;52.364;6.580;2023-08-30T06:28:31;100342.72;;;14.05;100.00
60307;BME280;46155;52.364;6.580;2023-08-30T06:30:56;100338.31;;;14.06;100.00
60307;BME280;46155;52.364;6.580;2023-08-30T06:33:23;100335.38;;;13.98;100.00
60307;BME280;46155;52.364;6.580;2023-08-30T06:35:49;100335.50;;;14.01;100.00
60307;BME280;46155;52.364;6.580;2023-08-30T06:38:19;100324.34;;;14.08;100.00
60307;BME280;46155;52.364;6.580;2023-08-30T06:40:45;100325.44;;;14.14;100.00
60307;BME280;46155;52.364;6.580;2023-08-30T06:43:11;100330.38;;;14.28;100.00
60307;BME280;46155;52.364;6.580;2023-08-30T06:45:38;100329.03;;;14.40;100.00
60307;BME280;46155;52.364;6.580;2023-08-30T06:48:04;100334.91;;;14.55;100.00
60307;BME280;46155;52.364;6.580;2023-08-30T06:50:30;100332.13;;;14.75;100.00
60307;BME280;46155;52.364;6.580;2023-08-30T06:52:56;100313.25;;;14.64;100.00
60307;BME280;46155;52.364;6.580;2023-08-30T06:55:21;100328.41;;;14.94;100.00
60307;BME280;46155;52.364;6.580;2023-08-30T06:57:47;100313.94;;;15.08;100.00
60307;BME280;46155;52.364;6.580;2023-08-30T07:00:14;100316.88;;;15.18;100.00
60307;BME280;46155;52.364;6.580;2023-08-30T07:02:40;100310.22;;;15.29;100.00
60307;BME280;46155;52.364;6.580;2023-08-30T07:05:06;100308.94;;;15.43;100.00
60307;BME280;46155;52.364;6.580;2023-08-30T07:07:31;100306.50;;;15.49;100.00
60307;BME280;46155;52.364;6.580;2023-08-30T07:09:57;100304.22;;;15.62;100.00
60307;BME280;46155;52.364;6.580;2023-08-30T07:12:22;100312.38;;;15.68;100.00
60307;BME280;46155;52.364;6.580;2023-08-30T07:14:48;100308.59;;;15.60;100.00
60307;BME280;46155;52.364;6.580;2023-08-30T07:17:13;100305.44;;;15.44;100.00
60307;BME280;46155;52.364;6.580;2023-08-30T07:19:39;100304.09;;;15.30;100.00
60307;BME280;46155;52.364;6.580;2023-08-30T07:22:04;100306.41;;;15.21;100.00
60307;BME280;46155;52.364;6.580;2023-08-30T07:24:30;100304.56;;;14.92;100.00
60307;BME280;46155;52.364;6.580;2023-08-30T07:26:55;100304.41;;;14.88;100.00
60307;BME280;46155;52.364;6.580;2023-08-30T07:29:20;100312.28;;;14.86;100.00
60307;BME280;46155;52.364;6.580;2023-08-30T07:31:46;100302.59;;;14.87;100.00
60307;BME280;46155;52.364;6.580;2023-08-30T07:34:12;100296.09;;;14.77;100.00
60307;BME280;46155;52.364;6.580;2023-08-30T07:36:37;100305.59;;;14.72;100.00
60307;BME280;46155;52.364;6.580;2023-08-30T07:39:03;100300.78;;;14.61;100.00
60307;BME280;46155;52.364;6.580;2023-08-30T07:41:28;100296.16;;;14.56;100.00
60307;BME280;46155;52.364;6.580;2023-08-30T07:43:54;100299.31;;;14.68;100.00
60307;BME280;46155;52.364;6.580;2023-08-30T07:46:19;100303.03;;;14.73;100.00
60307;BME280;46155;52.364;6.580;2023-08-30T07:48:44;100294.94;;;14.69;100.00
60307;BME280;46155;52.364;6.580;2023-08-30T07:51:10;100303.69;;;14.68;100.00
60307;BME280;46155;52.364;6.580;2023-08-30T07:53:35;100298.38;;;14.66;100.00
60307;BME280;46155;52.364;6.580;2023-08-30T07:56:00;100298.53;;;14.71;100.00
60307;BME280;46155;52.364;6.580;2023-08-30T07:58:26;100293.44;;;14.77;100.00
60307;BME280;46155;52.364;6.580;2023-08-30T08:00:54;100288.50;;;14.86;100.00
60307;BME280;46155;52.364;6.580;2023-08-30T08:03:20;100287.81;;;14.92;100.00
60307;BME280;46155;52.364;6.580;2023-08-30T08:05:46;100287.81;;;14.92;100.00
60307;BME280;46155;52.364;6.580;2023-08-30T08:08:11;100295.00;;;14.96;100.00
60307;BME280;46155;52.364;6.580;2023-08-30T08:10:37;100287.91;;;14.95;100.00
60307;BME280;46155;52.364;6.580;2023-08-30T08:13:02;100287.75;;;14.90;100.00
60307;BME280;46155;52.364;6.580;2023-08-30T08:15:29;100289.81;;;14.99;100.00
60307;BME280;46155;52.364;6.580;2023-08-30T08:17:56;100293.72;;;15.10;100.00
60307;BME280;46155;52.364;6.580;2023-08-30T08:20:21;100283.31;;;15.15;100.00
60307;BME280;46155;52.364;6.580;2023-08-30T08:22:47;100289.59;;;15.19;100.00
60307;BME280;46155;52.364;6.580;2023-08-30T08:25:12;100292.25;;;15.19;100.00
60307;BME280;46155;52.364;6.580;2023-08-30T08:27:37;100285.06;;;15.14;100.00
60307;BME280;46155;52.364;6.580;2023-08-30T08:30:04;100282.97;;;15.04;100.00
60307;BME280;46155;52.364;6.580;2023-08-30T08:32:30;100291.53;;;14.97;100.00
60307;BME280;46155;52.364;6.580;2023-08-30T08:34:56;100281.34;;;14.84;100.00
60307;BME280;46155;52.364;6.580;2023-08-30T08:37:21;100288.34;;;14.82;100.00
60307;BME280;46155;52.364;6.580;2023-08-30T08:39:47;100292.81;;;14.84;100.00
60307;BME280;46155;52.364;6.580;2023-08-30T08:42:17;100294.16;;;14.73;100.00
60307;BME280;46155;52.364;6.580;2023-08-30T08:44:43;100297.63;;;14.70;100.00
60307;BME280;46155;52.364;6.580;2023-08-30T08:47:11;100299.41;;;14.71;100.00
60307;BME280;46155;52.364;6.580;2023-08-30T08:49:36;100301.44;;;14.56;100.00
60307;BME280;46155;52.364;6.580;2023-08-30T08:52:03;100292.53;;;14.52;100.00
60307;BME280;46155;52.364;6.580;2023-08-30T08:54:29;100291.66;;;14.52;100.00
60307;BME280;46155;52.364;6.580;2023-08-30T08:56:55;100286.56;;;14.58;100.00
60307;BME280;46155;52.364;6.580;2023-08-30T08:59:23;100281.97;;;14.52;100.00
60307;BME280;46155;52.364;6.580;2023-08-30T09:01:49;100291.41;;;14.45;100.00
60307;BME280;46155;52.364;6.580;2023-08-30T09:04:14;100293.00;;;14.40;100.00
60307;BME280;46155;52.364;6.580;2023-08-30T09:06:40;100292.84;;;14.37;100.00
60307;BME280;46155;52.364;6.580;2023-08-30T09:09:07;100287.47;;;14.34;100.00
60307;BME280;46155;52.364;6.580;2023-08-30T09:11:33;100290.84;;;14.30;100.00
60307;BME280;46155;52.364;6.580;2023-08-30T09:13:59;100291.50;;;14.24;100.00
60307;BME280;46155;52.364;6.580;2023-08-30T09:16:24;100286.56;;;14.09;100.00
60307;BME280;46155;52.364;6.580;2023-08-30T09:19:00;100281.94;;;14.04;100.00
60307;BME280;46155;52.364;6.580;2023-08-30T09:21:26;100286.38;;;14.05;100.00
60307;BME280;46155;52.364;6.580;2023-08-30T09:26:25;100277.44;;;14.01;100.00
60307;BME280;46155;52.364;6.580;2023-08-30T09:28:50;100276.59;;;14.02;100.00
60307;BME280;46155;52.364;6.580;2023-08-30T09:31:18;100276.66;;;14.04;100.00
60307;BME280;46155;52.364;6.580;2023-08-30T09:33:45;100268.75;;;14.04;100.00
60307;BME280;46155;52.364;6.580;2023-08-30T09:36:11;100260.72;;;14.01;100.00
60307;BME280;46155;52.364;6.580;2023-08-30T09:38:37;100266.16;;;14.05;100.00
60307;BME280;46155;52.364;6.580;2023-08-30T09:41:06;100256.31;;;14.01;100.00
60307;BME280;46155;52.364;6.580;2023-08-30T09:43:34;100247.53;;;14.01;100.00
60307;BME280;46155;52.364;6.580;2023-08-30T09:46:03;100242.91;;;13.95;100.00
60307;BME280;46155;52.364;6.580;2023-08-30T09:48:31;100239.47;;;13.98;100.00
60307;BME280;46155;52.364;6.580;2023-08-30T09:50:58;100239.88;;;14.08;100.00
60307;BME280;46155;52.364;6.580;2023-08-30T09:53:25;100229.25;;;14.07;100.00
60307;BME280;46155;52.364;6.580;2023-08-30T09:55:54;100227.72;;;14.12;100.00
60307;BME280;46155;52.364;6.580;2023-08-30T09:58:21;100229.31;;;14.08;100.00
60307;BME280;46155;52.364;6.580;2023-08-30T10:00:48;100221.63;;;14.15;100.00
60307;BME280;46155;52.364;6.580;2023-08-30T10:03:15;100218.97;;;14.15;100.00
60307;BME280;46155;52.364;6.580;2023-08-30T10:05:41;100225.59;;;14.03;100.00
60307;BME280;46155;52.364;6.580;2023-08-30T10:08:07;100228.25;;;14.03;100.00
60307;BME280;46155;52.364;6.580;2023-08-30T10:10:34;100222.19;;;14.06;100.00
60307;BME280;46155;52.364;6.580;2023-08-30T10:13:01;100213.88;;;13.95;100.00
60307;BME280;46155;52.364;6.580;2023-08-30T10:15:27;100206.19;;;14.01;100.00
60307;BME280;46155;52.364;6.580;2023-08-30T10:17:57;100215.81;;;13.99;100.00
60307;BME280;46155;52.364;6.580;2023-08-30T10:20:23;100210.75;;;14.05;100.00
60307;BME280;46155;52.364;6.580;2023-08-30T10:22:49;100210.00;;;14.09;100.00
60307;BME280;46155;52.364;6.580;2023-08-30T10:25:21;100207.38;;;14.09;100.00
60307;BME280;46155;52.364;6.580;2023-08-30T10:27:48;100200.81;;;13.98;100.00
60307;BME280;46155;52.364;6.580;2023-08-30T10:30:16;100193.66;;;13.95;100.00
60307;BME280;46155;52.364;6.580;2023-08-30T10:32:44;100199.97;;;13.99;100.00
60307;BME280;46155;52.364;6.580;2023-08-30T10:35:11;100198.06;;;13.95;100.00
60307;BME280;46155;52.364;6.580;2023-08-30T10:37:38;100197.44;;;14.02;100.00
60307;BME280;46155;52.364;6.580;2023-08-30T10:40:04;100194.78;;;14.02;100.00
60307;BME280;46155;52.364;6.580;2023-08-30T10:42:31;100194.03;;;14.05;100.00
60307;BME280;46155;52.364;6.580;2023-08-30T10:44:58;100193.09;;;14.04;100.00
60307;BME280;46155;52.364;6.580;2023-08-30T10:47:28;100184.19;;;14.01;100.00
60307;BME280;46155;52.364;6.580;2023-08-30T10:49:57;100187.72;;;14.01;100.00
60307;BME280;46155;52.364;6.580;2023-08-30T10:52:24;100189.41;;;13.99;100.00
60307;BME280;46155;52.364;6.580;2023-08-30T10:54:51;100188.59;;;14.02;100.00
60307;BME280;46155;52.364;6.580;2023-08-30T10:57:24;100187.91;;;14.07;100.00
60307;BME280;46155;52.364;6.580;2023-08-30T11:02:35;100189.72;;;14.08;100.00
60307;BME280;46155;52.364;6.580;2023-08-30T11:05:01;100186.88;;;14.02;100.00
60307;BME280;46155;52.364;6.580;2023-08-30T11:07:28;100180.53;;;13.97;100.00
60307;BME280;46155;52.364;6.580;2023-08-30T11:09:54;100180.56;;;13.99;100.00
60307;BME280;46155;52.364;6.580;2023-08-30T11:12:19;100176.31;;;14.02;100.00
60307;BME280;46155;52.364;6.580;2023-08-30T11:14:48;100170.06;;;14.00;100.00
60307;BME280;46155;52.364;6.580;2023-08-30T11:17:17;100170.19;;;14.03;100.00
60307;BME280;46155;52.364;6.580;2023-08-30T11:19:42;100165.25;;;14.12;100.00
60307;BME280;46155;52.364;6.580;2023-08-30T11:22:08;100159.88;;;14.09;100.00
60307;BME280;46155;52.364;6.580;2023-08-30T11:24:35;100158.09;;;14.10;100.00
60307;BME280;46155;52.364;6.580;2023-08-30T11:27:00;100158.25;;;14.15;100.00
60307;BME280;46155;52.364;6.580;2023-08-30T11:29:29;100159.19;;;14.15;100.00
60307;BME280;46155;52.364;6.580;2023-08-30T11:31:54;100158.22;;;14.13;100.00
60307;BME280;46155;52.364;6.580;2023-08-30T11:34:20;100158.50;;;14.21;100.00
60307;BME280;46155;52.364;6.580;2023-08-30T11:36:50;100153.44;;;14.27;100.00
60307;BME280;46155;52.364;6.580;2023-08-30T11:39:16;100151.75;;;14.29;100.00
60307;BME280;46155;52.364;6.580;2023-08-30T11:41:42;100151.88;;;14.32;100.00
60307;BME280;46155;52.364;6.580;2023-08-30T11:44:08;100148.50;;;14.36;100.00
60307;BME280;46155;52.364;6.580;2023-08-30T11:46:34;100142.97;;;14.30;100.00
60307;BME280;46155;52.364;6.580;2023-08-30T11:48:59;100146.63;;;14.34;100.00
60307;BME280;46155;52.364;6.580;2023-08-30T11:51:25;100144.56;;;14.25;100.00
60307;BME280;46155;52.364;6.580;2023-08-30T11:53:52;100144.47;;;14.22;100.00
60307;BME280;46155;52.364;6.580;2023-08-30T11:56:17;100145.63;;;14.30;100.00
60307;BME280;46155;52.364;6.580;2023-08-30T11:58:44;100136.03;;;14.32;100.00
60307;BME280;46155;52.364;6.580;2023-08-30T12:01:09;100136.13;;;14.35;100.00
60307;BME280;46155;52.364;6.580;2023-08-30T12:03:35;100129.13;;;14.37;100.00
60307;BME280;46155;52.364;6.580;2023-08-30T12:06:01;100138.03;;;14.39;100.00
60307;BME280;46155;52.364;6.580;2023-08-30T12:08:28;100131.97;;;14.42;100.00
60307;BME280;46155;52.364;6.580;2023-08-30T12:10:54;100134.84;;;14.50;100.00
60307;BME280;46155;52.364;6.580;2023-08-30T12:13:26;100140.63;;;14.63;100.00
60307;BME280;46155;52.364;6.580;2023-08-30T12:15:53;100136.72;;;14.78;100.00
60307;BME280;46155;52.364;6.580;2023-08-30T12:18:23;100135.47;;;14.94;100.00
60307;BME280;46155;52.364;6.580;2023-08-30T12:20:56;100135.78;;;15.03;100.00
60307;BME280;46155;52.364;6.580;2023-08-30T12:23:23;100131.72;;;15.14;100.00
60307;BME280;46155;52.364;6.580;2023-08-30T12:26:02;100135.63;;;15.27;100.00
60307;BME280;46155;52.364;6.580;2023-08-30T12:28:29;100134.22;;;15.39;100.00
60307;BME280;46155;52.364;6.580;2023-08-30T12:30:55;100130.19;;;15.52;100.00
60307;BME280;46155;52.364;6.580;2023-08-30T12:33:21;100122.56;;;15.61;100.00
60307;BME280;46155;52.364;6.580;2023-08-30T12:35:47;100127.22;;;15.70;100.00
60307;BME280;46155;52.364;6.580;2023-08-30T12:38:12;100129.97;;;15.74;100.00
60307;BME280;46155;52.364;6.580;2023-08-30T12:40:49;100132.47;;;15.68;100.00
60307;BME280;46155;52.364;6.580;2023-08-30T12:43:16;100131.88;;;15.78;100.00
60307;BME280;46155;52.364;6.580;2023-08-30T12:45:42;100130.19;;;15.80;100.00
60307;BME280;46155;52.364;6.580;2023-08-30T12:48:09;100126.84;;;15.88;100.00
60307;BME280;46155;52.364;6.580;2023-08-30T12:50:36;100126.84;;;15.88;100.00
60307;BME280;46155;52.364;6.580;2023-08-30T12:53:02;100122.56;;;15.91;100.00
60307;BME280;46155;52.364;6.580;2023-08-30T12:55:28;100129.66;;;15.92;100.00
60307;BME280;46155;52.364;6.580;2023-08-30T12:57:53;100135.19;;;16.01;100.00
60307;BME280;46155;52.364;6.580;2023-08-30T13:00:19;100130.88;;;16.05;100.00
60307;BME280;46155;52.364;6.580;2023-08-30T13:02:44;100134.53;;;16.10;100.00
60307;BME280;46155;52.364;6.580;2023-08-30T13:05:10;100138.63;;;15.99;100.00
60307;BME280;46155;52.364;6.580;2023-08-30T13:07:36;100136.94;;;16.01;100.00
60307;BME280;46155;52.364;6.580;2023-08-30T13:10:01;100142.16;;;15.98;100.00
60307;BME280;46155;52.364;6.580;2023-08-30T13:12:27;100135.34;;;16.06;100.00
60307;BME280;46155;52.364;6.580;2023-08-30T13:14:52;100135.56;;;16.15;100.00
60307;BME280;46155;52.364;6.580;2023-08-30T13:17:17;100136.69;;;16.24;100.00
60307;BME280;46155;52.364;6.580;2023-08-30T13:19:46;100140.44;;;16.32;100.00
60307;BME280;46155;52.364;6.580;2023-08-30T13:22:11;100131.72;;;16.36;100.00
60307;BME280;46155;52.364;6.580;2023-08-30T13:24:37;100127.47;;;16.43;100.00
60307;BME280;46155;52.364;6.580;2023-08-30T13:27:03;100130.44;;;16.55;100.00
60307;BME280;46155;52.364;6.580;2023-08-30T13:29:28;100131.94;;;16.79;100.00
60307;BME280;46155;52.364;6.580;2023-08-30T13:31:54;100133.28;;;16.98;100.00
60307;BME280;46155;52.364;6.580;2023-08-30T13:34:19;100140.47;;;17.02;100.00
60307;BME280;46155;52.364;6.580;2023-08-30T13:36:44;100142.97;;;16.96;100.00
60307;BME280;46155;52.364;6.580;2023-08-30T13:39:10;100154.50;;;16.98;100.00
60307;BME280;46155;52.364;6.580;2023-08-30T13:41:35;100139.38;;;16.94;100.00
60307;BME280;46155;52.364;6.580;2023-08-30T13:44:01;100149.28;;;17.01;100.00
60307;BME280;46155;52.364;6.580;2023-08-30T13:46:29;100153.63;;;16.97;100.00
60307;BME280;46155;52.364;6.580;2023-08-30T13:48:55;100148.25;;;16.94;100.00
60307;BME280;46155;52.364;6.580;2023-08-30T13:51:22;100144.94;;;17.04;100.00
60307;BME280;46155;52.364;6.580;2023-08-30T13:53:48;100150.28;;;17.06;100.00
60307;BME280;46155;52.364;6.580;2023-08-30T13:56:13;100149.09;;;16.93;100.00
60307;BME280;46155;52.364;6.580;2023-08-30T13:58:38;100145.47;;;16.90;100.00
60307;BME280;46155;52.364;6.580;2023-08-30T14:01:04;100149.13;;;16.95;100.00
60307;BME280;46155;52.364;6.580;2023-08-30T14:03:30;100154.63;;;17.02;100.00
60307;BME280;46155;52.364;6.580;2023-08-30T14:05:55;100144.69;;;16.94;100.00
60307;BME280;46155;52.364;6.580;2023-08-30T14:08:20;100151.00;;;16.99;100.00
60307;BME280;46155;52.364;6.580;2023-08-30T14:10:46;100149.50;;;17.10;100.00
60307;BME280;46155;52.364;6.580;2023-08-30T14:13:11;100156.78;;;17.19;100.00
60307;BME280;46155;52.364;6.580;2023-08-30T14:15:36;100151.41;;;17.16;100.00
60307;BME280;46155;52.364;6.580;2023-08-30T14:18:02;100155.88;;;17.18;100.00
60307;BME280;46155;52.364;6.580;2023-08-30T14:20:28;100156.13;;;17.29;100.00
60307;BME280;46155;52.364;6.580;2023-08-30T14:22:53;100153.38;;;17.25;100.00
60307;BME280;46155;52.364;6.580;2023-08-30T14:25:18;100163.34;;;17.36;100.00
60307;BME280;46155;52.364;6.580;2023-08-30T14:27:44;100166.72;;;17.29;100.00
60307;BME280;46155;52.364;6.580;2023-08-30T14:30:09;100162.28;;;17.27;100.00
60307;BME280;46155;52.364;6.580;2023-08-30T14:32:35;100171.94;;;17.25;100.00
60307;BME280;46155;52.364;6.580;2023-08-30T14:35:03;100163.34;;;17.36;100.00
60307;BME280;46155;52.364;6.580;2023-08-30T14:37:28;100173.00;;;17.31;100.00
60307;BME280;46155;52.364;6.580;2023-08-30T14:39:53;100174.66;;;17.28;100.00
60307;BME280;46155;52.364;6.580;2023-08-30T14:42:19;100171.16;;;17.29;99.41
60307;BME280;46155;52.364;6.580;2023-08-30T14:44:49;100177.34;;;17.29;100.00
60307;BME280;46155;52.364;6.580;2023-08-30T14:47:14;100181.91;;;17.35;100.00
60307;BME280;46155;52.364;6.580;2023-08-30T14:49:39;100188.88;;;17.30;100.00
60307;BME280;46155;52.364;6.580;2023-08-30T14:52:05;100184.41;;;17.29;100.00
60307;BME280;46155;52.364;6.580;2023-08-30T14:54:30;100189.75;;;17.30;98.44
60307;BME280;46155;52.364;6.580;2023-08-30T14:56:55;100187.94;;;17.29;99.18
60307;BME280;46155;52.364;6.580;2023-08-30T14:59:21;100180.03;;;17.31;100.00
60307;BME280;46155;52.364;6.580;2023-08-30T15:01:46;100189.78;;;17.32;100.00
60307;BME280;46155;52.364;6.580;2023-08-30T15:04:11;100187.44;;;17.44;100.00
60307;BME280;46155;52.364;6.580;2023-08-30T15:06:36;100190.03;;;17.41;100.00
60307;BME280;46155;52.364;6.580;2023-08-30T15:09:05;100196.03;;;17.34;100.00
60307;BME280;46155;52.364;6.580;2023-08-30T15:11:30;100195.06;;;17.30;100.00
60307;BME280;46155;52.364;6.580;2023-08-30T15:13:55;100195.06;;;17.30;100.00
60307;BME280;46155;52.364;6.580;2023-08-30T15:16:21;100195.81;;;17.25;100.00
60307;BME280;46155;52.364;6.580;2023-08-30T15:18:47;100191.09;;;17.11;100.00
60307;BME280;46155;52.364;6.580;2023-08-30T15:21:13;100202.47;;;17.07;100.00
60307;BME280;46155;52.364;6.580;2023-08-30T15:23:38;100193.56;;;17.05;100.00
60307;BME280;46155;52.364;6.580;2023-08-30T15:26:04;100188.06;;;16.96;100.00
60307;BME280;46155;52.364;6.580;2023-08-30T15:28:31;100189.75;;;16.94;100.00
60307;BME280;46155;52.364;6.580;2023-08-30T15:30:56;100190.59;;;16.91;100.00
60307;BME280;46155;52.364;6.580;2023-08-30T15:33:22;100194.88;;;16.87;100.00
60307;BME280;46155;52.364;6.580;2023-08-30T15:35:50;100195.97;;;16.94;100.00
60307;BME280;46155;52.364;6.580;2023-08-30T15:38:15;100204.91;;;16.99;100.00
60307;BME280;46155;52.364;6.580;2023-08-30T15:40:41;100205.09;;;17.06;100.00